Site contains unofficial IBTrACS data. Visit the IBTrACS Website to access archived data.

1860 NOT_NAMED (1860081S14069)


IBTrACS version v04r00. Visit IBTrACS website for data access.
Please direct all questions to the IBTrACS Q and A forum

Storm track - Intensity - Wind Radii - Intensity Data - Source Data - All data

Summary Information

Storm ID 1860081S14069
Start Mar 21 06Z
End Mar 31 06Z
ATCF IDs
Track status Best track data.

Storm track plot

Map of storm track

Intensity plots

No Intensity information for this storm


Radial wind information

No radial wind information for this storm


Position and Intensity Table

BASIN ISO_TIME_________ NATURE LAT LON
degrees north degrees east
SI 1860-03-21 06:00:00 NR -13.60 69.00
SI 09:00:00 NR -13.70 68.85
SI 12:00:00 NR -13.80 68.70
SI 15:00:00 NR -13.90 68.55
SI 18:00:00 NR -14.01 68.40
SI 21:00:00 NR -14.11 68.25
SI 1860-03-22 00:00:00 NR -14.20 68.10
SI 03:00:00 NR -14.30 67.95
SI 06:00:00 NR -14.40 67.80
SI 09:00:00 NR -14.50 67.65
SI 12:00:00 NR -14.59 67.51
SI 15:00:00 NR -14.69 67.36
SI 18:00:00 NR -14.80 67.20
SI 21:00:00 NR -14.91 67.04
SI 1860-03-23 00:00:00 NR -15.03 66.87
SI 03:00:00 NR -15.16 66.69
SI 06:00:00 NR -15.30 66.50
SI 09:00:00 NR -15.47 66.28
SI 12:00:00 NR -15.66 66.04
SI 15:00:00 NR -15.86 65.79
SI 18:00:00 NR -16.06 65.54
SI 21:00:00 NR -16.26 65.29
SI 1860-03-24 00:00:00 NR -16.45 65.05
SI 03:00:00 NR -16.63 64.82
SI 06:00:00 NR -16.80 64.60
SI 09:00:00 NR -16.92 64.43
SI 12:00:00 NR -17.02 64.28
SI 15:00:00 NR -17.12 64.13
SI 18:00:00 NR -17.21 64.00
SI 21:00:00 NR -17.29 63.86
SI 1860-03-25 00:00:00 NR -17.38 63.72
SI 03:00:00 NR -17.48 63.57
SI 06:00:00 NR -17.60 63.40
SI 09:00:00 NR -17.75 63.18
SI 12:00:00 NR -17.92 62.95
SI 15:00:00 NR -18.09 62.71
SI 18:00:00 NR -18.27 62.46
SI 21:00:00 NR -18.46 62.21
SI 1860-03-26 00:00:00 NR -18.64 61.96
SI 03:00:00 NR -18.82 61.72
SI 06:00:00 NR -19.00 61.50
SI 09:00:00 NR -19.15 61.31
SI 12:00:00 NR -19.30 61.13
SI 15:00:00 NR -19.45 60.96
SI 18:00:00 NR -19.59 60.80
SI 21:00:00 NR -19.74 60.64
SI 1860-03-27 00:00:00 NR -19.89 60.49
SI 03:00:00 NR -20.04 60.35
SI 06:00:00 NR -20.20 60.20
SI 09:00:00 NR -20.34 60.04
SI 12:00:00 NR -20.48 59.89
SI 15:00:00 NR -20.62 59.74
SI 18:00:00 NR -20.78 59.59
SI 21:00:00 NR -20.97 59.44
SI 1860-03-28 00:00:00 NR -21.18 59.29
SI 03:00:00 NR -21.42 59.15
SI 06:00:00 NR -21.70 59.00
SI 09:00:00 NR -22.04 58.84
SI 12:00:00 NR -22.41 58.68
SI 15:00:00 NR -22.82 58.52
SI 18:00:00 NR -23.26 58.36
SI 21:00:00 NR -23.71 58.21
SI 1860-03-29 00:00:00 NR -24.17 58.07
SI 03:00:00 NR -24.64 57.93
SI 06:00:00 NR -25.10 57.80
SI 09:00:00 NR -25.55 57.68
SI 12:00:00 NR -26.01 57.57
SI 15:00:00 NR -26.46 57.47
SI 18:00:00 NR -26.90 57.38
SI 21:00:00 NR -27.34 57.30
SI 1860-03-30 00:00:00 NR -27.75 57.23
SI 03:00:00 NR -28.14 57.16
SI 06:00:00 NR -28.50 57.10
SI 09:00:00 NR -28.83 57.05
SI 12:00:00 NR -29.12 57.00
SI 15:00:00 NR -29.39 56.96
SI 18:00:00 NR -29.64 56.92
SI 21:00:00 NR -29.87 56.89
SI 1860-03-31 00:00:00 NR -30.09 56.86
SI 03:00:00 NR -30.30 56.83
SI 06:00:00 NR -30.50 56.80

Source Information

Agency Information
USA
TOKYO
CMA
HKO
NEWDELHI
REUNION WMO-Best-Tracks.txt:Line=292:xxxx860044
BOM
NADI
WELLINGTON
DS824
TD9636
TD9635
NEUMANN
MLC

All available IBTrACS Data

SEASON BASIN SUBBASIN ISO_TIME_________ NATURE LAT LON WMO AGENCY DIST2LAND LANDFALL IFLAG USA SSHS REUNION LAT REUNION LON REUNION TYPE REUNION TNUM STORM SPEED STORM DIR
Year degrees north degrees east km km 1 degrees north degrees east 1 kts degrees
1860 SI MM 1860-03-21 06:00:00 NR -13.60 69.00 reunion 1404 1389 _____O________ -1 -13.60 69.00 99 9.90 4 236
1860 SI MM 09:00:00 NR -13.70 68.85 1380 1365 _____P________ -1 -13.70 68.85 99 4 235
1860 SI MM 12:00:00 NR -13.80 68.70 1365 1350 _____P________ -1 -13.80 68.70 99 4 235
1860 SI MM 15:00:00 NR -13.90 68.55 1341 1326 _____P________ -1 -13.90 68.55 99 4 235
1860 SI MM 18:00:00 NR -14.01 68.40 1326 1311 _____P________ -1 -14.01 68.40 99 4 235
1860 SI MM 21:00:00 NR -14.11 68.25 1301 1286 _____P________ -1 -14.11 68.25 99 4 235
1860 SI MM 1860-03-22 00:00:00 NR -14.20 68.10 1286 1271 _____P________ -1 -14.20 68.10 99 4 236
1860 SI MM 03:00:00 NR -14.30 67.95 1262 1247 _____P________ -1 -14.30 67.95 99 3 236
1860 SI MM 06:00:00 NR -14.40 67.80 reunion 1247 1232 _____O________ -1 -14.40 67.80 99 9.90 3 236
1860 SI MM 09:00:00 NR -14.50 67.65 1232 1208 _____P________ -1 -14.50 67.65 99 3 236
1860 SI MM 12:00:00 NR -14.59 67.51 1208 1193 _____P________ -1 -14.59 67.51 99 3 236
1860 SI MM 15:00:00 NR -14.69 67.36 1193 1168 _____P________ -1 -14.69 67.36 99 4 235
1860 SI MM 18:00:00 NR -14.80 67.20 1168 1144 _____P________ -1 -14.80 67.20 99 4 235
1860 SI MM 21:00:00 NR -14.91 67.04 1144 1129 _____P________ -1 -14.91 67.04 99 4 234
1860 SI MM 1860-03-23 00:00:00 NR -15.03 66.87 1129 1105 _____P________ -1 -15.03 66.87 99 4 233
1860 SI MM 03:00:00 NR -15.16 66.69 1099 1075 _____P________ -1 -15.16 66.69 99 5 233
1860 SI MM 06:00:00 NR -15.30 66.50 reunion 1075 1045 _____O________ -1 -15.30 66.50 99 9.90 5 232
1860 SI MM 09:00:00 NR -15.47 66.28 1045 1015 _____P________ -1 -15.47 66.28 99 6 231
1860 SI MM 12:00:00 NR -15.66 66.04 1006 982 _____P________ -1 -15.66 66.04 99 6 230
1860 SI MM 15:00:00 NR -15.86 65.79 976 952 _____P________ -1 -15.86 65.79 99 6 230
1860 SI MM 18:00:00 NR -16.06 65.54 937 913 _____P________ -1 -16.06 65.54 99 6 230
1860 SI MM 21:00:00 NR -16.26 65.29 908 884 _____P________ -1 -16.26 65.29 99 6 230
1860 SI MM 1860-03-24 00:00:00 NR -16.45 65.05 878 845 _____P________ -1 -16.45 65.05 99 6 231
1860 SI MM 03:00:00 NR -16.63 64.82 845 816 _____P________ -1 -16.63 64.82 99 6 231
1860 SI MM 06:00:00 NR -16.80 64.60 reunion 816 791 _____O________ -1 -16.80 64.60 99 9.90 5 232
1860 SI MM 09:00:00 NR -16.92 64.43 791 777 _____P________ -1 -16.92 64.43 99 4 234
1860 SI MM 12:00:00 NR -17.02 64.28 777 753 _____P________ -1 -17.02 64.28 99 3 235
1860 SI MM 15:00:00 NR -17.12 64.13 753 738 _____P________ -1 -17.12 64.13 99 3 236
1860 SI MM 18:00:00 NR -17.21 64.00 738 724 _____P________ -1 -17.21 64.00 99 3 236
1860 SI MM 21:00:00 NR -17.29 63.86 724 700 _____P________ -1 -17.29 63.86 99 3 236
1860 SI MM 1860-03-25 00:00:00 NR -17.38 63.72 700 685 _____P________ -1 -17.38 63.72 99 3 236
1860 SI MM 03:00:00 NR -17.48 63.57 685 661 _____P________ -1 -17.48 63.57 99 4 235
1860 SI MM 06:00:00 NR -17.60 63.40 reunion 661 637 _____O________ -1 -17.60 63.40 99 9.90 5 234
1860 SI MM 09:00:00 NR -17.75 63.18 632 608 _____P________ -1 -17.75 63.18 99 5 234
1860 SI MM 12:00:00 NR -17.92 62.95 608 570 _____P________ -1 -17.92 62.95 99 6 233
1860 SI MM 15:00:00 NR -18.09 62.71 570 541 _____P________ -1 -18.09 62.71 99 6 233
1860 SI MM 18:00:00 NR -18.27 62.46 541 508 _____P________ -1 -18.27 62.46 99 6 232
1860 SI MM 21:00:00 NR -18.46 62.21 503 479 _____P________ -1 -18.46 62.21 99 6 232
1860 SI MM 1860-03-26 00:00:00 NR -18.64 61.96 479 441 _____P________ -1 -18.64 61.96 99 6 231
1860 SI MM 03:00:00 NR -18.82 61.72 441 413 _____P________ -1 -18.82 61.72 99 6 231
1860 SI MM 06:00:00 NR -19.00 61.50 reunion 413 390 _____O________ -1 -19.00 61.50 99 9.90 5 230
1860 SI MM 09:00:00 NR -19.15 61.31 386 362 _____P________ -1 -19.15 61.31 99 5 229
1860 SI MM 12:00:00 NR -19.30 61.13 362 349 _____P________ -1 -19.30 61.13 99 4 228
1860 SI MM 15:00:00 NR -19.45 60.96 349 323 _____P________ -1 -19.45 60.96 99 4 227
1860 SI MM 18:00:00 NR -19.59 60.80 323 310 _____P________ -1 -19.59 60.80 99 4 226
1860 SI MM 21:00:00 NR -19.74 60.64 300 285 _____P________ -1 -19.74 60.64 99 4 224
1860 SI MM 1860-03-27 00:00:00 NR -19.89 60.49 285 273 _____P________ -1 -19.89 60.49 99 4 223
1860 SI MM 03:00:00 NR -20.04 60.35 263 250 _____P________ -1 -20.04 60.35 99 4 221
1860 SI MM 06:00:00 NR -20.20 60.20 reunion 250 239 _____O________ -1 -20.20 60.20 99 9.90 4 224
1860 SI MM 09:00:00 NR -20.34 60.04 229 219 _____P________ -1 -20.34 60.04 99 4 227
1860 SI MM 12:00:00 NR -20.48 59.89 219 200 _____P________ -1 -20.48 59.89 99 4 225
1860 SI MM 15:00:00 NR -20.62 59.74 200 192 _____P________ -1 -20.62 59.74 99 4 222
1860 SI MM 18:00:00 NR -20.78 59.59 195 183 _____P________ -1 -20.78 59.59 99 4 219
1860 SI MM 21:00:00 NR -20.97 59.44 183 179 _____P________ -1 -20.97 59.44 99 5 215
1860 SI MM 1860-03-28 00:00:00 NR -21.18 59.29 183 179 _____P________ -1 -21.18 59.29 99 5 211
1860 SI MM 03:00:00 NR -21.42 59.15 176 176 _____P________ -1 -21.42 59.15 99 6 208
1860 SI MM 06:00:00 NR -21.70 59.00 reunion 190 190 _____O________ -1 -21.70 59.00 99 9.90 7 205
1860 SI MM 09:00:00 NR -22.04 58.84 202 202 _____P________ -1 -22.04 58.84 99 8 202
1860 SI MM 12:00:00 NR -22.41 58.68 236 236 _____P________ -1 -22.41 58.68 99 8 201
1860 SI MM 15:00:00 NR -22.82 58.52 270 270 _____P________ -1 -22.82 58.52 99 9 199
1860 SI MM 18:00:00 NR -23.26 58.36 321 319 _____P________ -1 -23.26 58.36 99 9 198
1860 SI MM 21:00:00 NR -23.71 58.21 361 361 _____P________ -1 -23.71 58.21 99 10 197
1860 SI MM 1860-03-29 00:00:00 NR -24.17 58.07 400 394 _____P________ -1 -24.17 58.07 99 10 196
1860 SI MM 03:00:00 NR -24.64 57.93 426 426 _____P________ -1 -24.64 57.93 99 10 195
1860 SI MM 06:00:00 NR -25.10 57.80 reunion 470 470 _____O________ -1 -25.10 57.80 99 9.90 9 194
1860 SI MM 09:00:00 NR -25.55 57.68 515 515 _____P________ -1 -25.55 57.68 99 9 193
1860 SI MM 12:00:00 NR -26.01 57.57 552 552 _____P________ -1 -26.01 57.57 99 9 191
1860 SI MM 15:00:00 NR -26.46 57.47 601 601 _____P________ -1 -26.46 57.47 99 9 191
1860 SI MM 18:00:00 NR -26.90 57.38 641 641 _____P________ -1 -26.90 57.38 99 9 190
1860 SI MM 21:00:00 NR -27.34 57.30 681 681 _____P________ -1 -27.34 57.30 99 9 189
1860 SI MM 1860-03-30 00:00:00 NR -27.75 57.23 733 733 _____P________ -1 -27.75 57.23 99 8 189
1860 SI MM 03:00:00 NR -28.14 57.16 765 765 _____P________ -1 -28.14 57.16 99 8 188
1860 SI MM 06:00:00 NR -28.50 57.10 reunion 807 807 _____O________ -1 -28.50 57.10 99 9.90 7 188
1860 SI MM 09:00:00 NR -28.83 57.05 838 838 _____P________ -1 -28.83 57.05 99 6 188
1860 SI MM 12:00:00 NR -29.12 57.00 871 871 _____P________ -1 -29.12 57.00 99 6 188
1860 SI MM 15:00:00 NR -29.39 56.96 904 904 _____P________ -1 -29.39 56.96 99 5 187
1860 SI MM 18:00:00 NR -29.64 56.92 925 925 _____P________ -1 -29.64 56.92 99 5 187
1860 SI MM 21:00:00 NR -29.87 56.89 958 958 _____P________ -1 -29.87 56.89 99 5 187
1860 SI MM 1860-03-31 00:00:00 NR -30.09 56.86 980 979 _____P________ -1 -30.09 56.86 99 4 188
1860 SI MM 03:00:00 NR -30.30 56.83 1001 1001 _____P________ -1 -30.30 56.83 99 4 188
1860 SI MM 06:00:00 NR -30.50 56.80 reunion 1023 _____O________ -1 -30.50 56.80 99 9.90 4 187